Time;durP1;ratioP1;P1;durP2;ratioP2;P2;SDS_P1;SDS_P2;PMS_P1;PMS_P2;Temp;Humidity;BMP_temperature;BMP_pressure;BME280_temperature;BME280_humidity;BME280_pressure;Samples;Min_cycle;Max_cycle;Signal;HPM_P1;HPM_P2
2023/06/15 00:01:19;;;;;;;2.15;1.60;;;21.10;37.40;;;;;;4982300;28;20388;-85
2023/06/15 00:03:46;;;;;;;3.10;1.98;;;21.00;37.50;;;;;;4983400;28;20058;-85
2023/06/15 00:06:13;;;;;;;1.77;1.63;;;21.00;37.80;;;;;;4984038;28;20061;-85
2023/06/15 00:08:42;;;;;;;5.38;2.00;;;20.90;37.90;;;;;;4983648;28;20054;-85
2023/06/15 00:11:09;;;;;;;2.70;1.88;;;21.00;38.10;;;;;;4984319;28;20054;-85
2023/06/15 00:13:37;;;;;;;1.98;1.40;;;20.90;38.50;;;;;;4989655;28;20529;-85
2023/06/15 00:16:04;;;;;;;2.50;2.00;;;20.90;37.90;;;;;;4984692;28;20402;-86
2023/06/15 00:18:37;;;;;;;2.90;2.03;;;20.80;37.80;;;;;;4982244;28;20491;-86
2023/06/15 00:21:05;;;;;;;2.10;1.85;;;20.80;37.80;;;;;;4982075;28;20061;-86
2023/06/15 00:23:32;;;;;;;2.10;1.80;;;20.80;37.80;;;;;;4982589;28;20081;-86
2023/06/15 00:26:01;;;;;;;2.55;1.83;;;20.70;37.70;;;;;;4983127;28;20057;-86
2023/06/15 00:28:28;;;;;;;2.00;1.75;;;20.70;37.90;;;;;;4983222;28;20050;-85
2023/06/15 00:30:56;;;;;;;1.90;1.70;;;20.60;37.90;;;;;;4983715;28;20542;-86
2023/06/15 00:33:23;;;;;;;3.88;1.90;;;20.60;38.10;;;;;;4983577;28;20046;-85
2023/06/15 00:35:50;;;;;;;2.00;1.60;;;20.60;38.20;;;;;;4983638;28;20934;-85
2023/06/15 00:38:17;;;;;;;2.75;1.98;;;20.60;38.30;;;;;;4978642;28;20057;-85
2023/06/15 00:40:45;;;;;;;2.40;2.10;;;20.50;38.30;;;;;;4983800;28;20062;-85
2023/06/15 00:43:14;;;;;;;4.90;1.80;;;20.50;38.40;;;;;;4982731;28;20418;-85
2023/06/15 00:45:41;;;;;;;2.15;1.90;;;20.50;38.50;;;;;;4983460;28;20054;-85
2023/06/15 00:48:08;;;;;;;2.60;1.85;;;20.50;38.50;;;;;;4982163;28;20058;-85
2023/06/15 00:50:37;;;;;;;2.92;1.95;;;20.40;38.50;;;;;;4981470;28;20058;-85
2023/06/15 00:53:05;;;;;;;1.80;1.70;;;20.40;38.60;;;;;;4978239;28;20061;-85
2023/06/15 00:55:33;;;;;;;3.53;1.80;;;20.40;38.70;;;;;;4983188;28;20529;-85
2023/06/15 00:58:01;;;;;;;1.85;1.60;;;20.40;38.70;;;;;;4980706;28;20054;-85
2023/06/15 01:00:33;;;;;;;1.92;1.73;;;20.30;38.80;;;;;;4983574;28;20518;-85
2023/06/15 01:03:04;;;;;;;2.50;1.90;;;20.30;38.90;;;;;;4980930;28;20066;-85
2023/06/15 01:05:34;;;;;;;2.85;1.90;;;20.30;38.90;;;;;;4983466;28;20058;-85
2023/06/15 01:08:04;;;;;;;4.32;1.90;;;20.30;38.90;;;;;;4981681;28;20422;-84
2023/06/15 01:10:33;;;;;;;2.10;1.60;;;20.30;38.90;;;;;;4983173;28;20065;-84
2023/06/15 01:13:03;;;;;;;2.13;1.70;;;20.20;38.90;;;;;;4980228;28;20054;-84
2023/06/15 01:15:32;;;;;;;5.95;1.73;;;20.20;38.90;;;;;;4982174;28;20050;-85
2023/06/15 01:18:02;;;;;;;5.10;2.20;;;20.20;39.10;;;;;;4982336;28;20054;-85
2023/06/15 01:20:38;;;;;;;2.08;1.70;;;20.20;39.10;;;;;;4982842;28;20058;-85
2023/06/15 01:23:19;;;;;;;3.55;1.88;;;20.10;39.10;;;;;;4978235;28;20046;-85
2023/06/15 01:26:00;;;;;;;2.85;2.00;;;20.10;39.30;;;;;;4982640;28;20057;-84
2023/06/15 01:28:30;;;;;;;2.22;1.83;;;20.10;39.30;;;;;;4982305;28;20062;-84
2023/06/15 01:30:58;;;;;;;3.35;2.03;;;20.10;39.30;;;;;;4978098;28;20046;-85
2023/06/15 01:33:26;;;;;;;4.05;2.00;;;20.00;39.50;;;;;;4981432;28;20058;-84
2023/06/15 01:35:53;;;;;;;3.40;2.00;;;20.00;39.50;;;;;;4981384;28;20272;-85
2023/06/15 01:38:24;;;;;;;1.90;1.70;;;20.00;39.60;;;;;;4980063;28;20046;-85
2023/06/15 01:40:54;;;;;;;2.85;1.90;;;20.00;39.70;;;;;;4982341;28;20429;-85
2023/06/15 01:43:25;;;;;;;3.92;1.67;;;20.00;39.80;;;;;;4979740;28;20050;-85
2023/06/15 01:45:54;;;;;;;2.22;1.63;;;19.90;39.80;;;;;;4981830;28;20058;-85
2023/06/15 01:48:21;;;;;;;5.30;2.17;;;19.90;39.90;;;;;;4981996;28;20387;-84
2023/06/15 01:50:49;;;;;;;2.00;1.80;;;19.90;40.20;;;;;;4983104;28;20538;-84
2023/06/15 01:53:16;;;;;;;2.10;1.65;;;19.80;40.20;;;;;;4984717;28;20050;-84
2023/06/15 01:55:44;;;;;;;2.78;2.08;;;19.80;40.30;;;;;;4981860;28;20073;-85
2023/06/15 01:58:15;;;;;;;4.47;2.22;;;19.80;40.40;;;;;;4980096;28;20057;-85
2023/06/15 02:00:42;;;;;;;3.90;2.08;;;19.80;40.50;;;;;;4980144;28;20050;-84
2023/06/15 02:03:10;;;;;;;4.82;2.22;;;19.80;40.50;;;;;;4979001;28;20050;-85
2023/06/15 02:05:39;;;;;;;3.65;2.13;;;19.80;40.70;;;;;;4982443;28;20069;-84
2023/06/15 02:08:07;;;;;;;2.30;1.98;;;19.70;40.80;;;;;;4980770;28;20058;-84
2023/06/15 02:10:34;;;;;;;4.28;2.10;;;19.70;40.90;;;;;;4981015;28;20703;-84
2023/06/15 02:13:02;;;;;;;3.88;2.17;;;19.70;40.90;;;;;;4978449;28;20062;-84
2023/06/15 02:15:30;;;;;;;2.35;1.83;;;19.70;41.10;;;;;;4981277;28;20054;-84
2023/06/15 02:18:00;;;;;;;3.50;1.83;;;19.70;41.10;;;;;;4982306;28;20533;-84
2023/06/15 02:20:28;;;;;;;3.05;2.15;;;19.60;41.00;;;;;;4981097;28;20062;-84
2023/06/15 02:22:57;;;;;;;4.55;2.90;;;19.60;41.40;;;;;;4979637;28;20058;-85
2023/06/15 02:25:25;;;;;;;2.92;2.00;;;19.60;41.40;;;;;;4980694;28;20058;-84
2023/06/15 02:27:52;;;;;;;3.78;2.17;;;19.60;41.50;;;;;;4981741;28;20054;-84
2023/06/15 02:30:21;;;;;;;3.22;1.98;;;19.60;41.50;;;;;;4981802;28;20510;-84
2023/06/15 02:32:52;;;;;;;6.05;2.17;;;19.50;41.50;;;;;;4979163;28;20054;-84
2023/06/15 02:35:20;;;;;;;4.13;2.22;;;19.50;41.50;;;;;;4979434;28;20410;-84
2023/06/15 02:37:48;;;;;;;2.58;1.90;;;19.50;41.50;;;;;;4974907;28;20069;-84
2023/06/15 02:40:15;;;;;;;3.35;2.10;;;19.50;41.60;;;;;;4980459;28;20062;-83
2023/06/15 02:42:42;;;;;;;2.25;1.90;;;19.50;41.70;;;;;;4984216;28;20053;-83
2023/06/15 02:45:10;;;;;;;3.55;1.75;;;19.50;41.70;;;;;;4985461;28;20054;-84
2023/06/15 02:47:38;;;;;;;2.30;2.10;;;19.40;41.70;;;;;;4980969;28;20491;-84
2023/06/15 02:50:10;;;;;;;3.83;2.22;;;19.40;41.90;;;;;;4990491;28;20062;-84
2023/06/15 02:52:37;;;;;;;3.30;2.00;;;19.40;42.10;;;;;;4983206;28;20061;-83
2023/06/15 02:55:05;;;;;;;2.88;2.22;;;19.40;42.10;;;;;;4990608;28;20058;-83
2023/06/15 02:57:32;;;;;;;2.75;1.90;;;19.40;42.10;;;;;;4985629;28;20054;-84
2023/06/15 03:00:00;;;;;;;3.00;2.03;;;19.40;42.10;;;;;;4985033;28;20054;-84
2023/06/15 03:02:27;;;;;;;5.50;2.60;;;19.40;42.20;;;;;;4983171;28;20050;-84
2023/06/15 03:04:54;;;;;;;2.42;1.95;;;19.40;42.40;;;;;;4984544;28;20066;-84
2023/06/15 03:07:23;;;;;;;2.05;1.85;;;19.40;42.30;;;;;;4982337;28;20525;-83
2023/06/15 03:09:52;;;;;;;5.78;2.50;;;19.40;42.30;;;;;;4984978;28;20053;-84
2023/06/15 03:12:20;;;;;;;2.65;2.10;;;19.30;42.40;;;;;;4984364;28;20054;-83
2023/06/15 03:14:50;;;;;;;2.30;1.98;;;19.30;42.30;;;;;;4985966;28;20418;-83
2023/06/15 03:17:17;;;;;;;2.80;2.00;;;19.30;42.40;;;;;;4984776;28;20050;-83
2023/06/15 03:19:46;;;;;;;3.67;2.28;;;19.30;42.50;;;;;;4985071;28;20070;-85
2023/06/15 03:22:14;;;;;;;3.65;2.30;;;19.30;42.50;;;;;;4983237;28;20054;-84
2023/06/15 03:24:43;;;;;;;2.72;2.00;;;19.20;42.60;;;;;;4984224;28;20055;-83
2023/06/15 03:27:11;;;;;;;3.33;2.00;;;19.20;42.70;;;;;;4985465;28;20968;-83
2023/06/15 03:29:39;;;;;;;2.70;2.00;;;19.20;42.70;;;;;;4981707;28;22944;-84
2023/06/15 03:32:07;;;;;;;2.40;1.92;;;19.20;42.70;;;;;;4984117;28;20055;-84
2023/06/15 03:34:36;;;;;;;4.68;2.28;;;19.20;42.80;;;;;;4984779;28;20442;-83
2023/06/15 03:37:05;;;;;;;3.25;2.00;;;19.20;43.00;;;;;;4989377;28;20501;-84
2023/06/15 03:39:33;;;;;;;3.15;2.10;;;19.20;42.90;;;;;;4984149;28;20054;-84
2023/06/15 03:42:01;;;;;;;3.15;2.13;;;19.20;42.90;;;;;;4984972;28;20054;-84
2023/06/15 03:44:29;;;;;;;2.42;2.20;;;19.20;42.90;;;;;;4978444;28;20057;-85
2023/06/15 03:46:56;;;;;;;3.00;2.10;;;19.10;42.90;;;;;;4984843;28;20050;-84
2023/06/15 03:49:24;;;;;;;3.33;2.15;;;19.10;42.90;;;;;;4984749;28;20386;-84
2023/06/15 03:51:51;;;;;;;4.47;1.92;;;19.10;42.90;;;;;;4981068;28;20416;-84
2023/06/15 03:54:18;;;;;;;4.32;2.20;;;19.10;43.00;;;;;;4983188;28;20050;-84
2023/06/15 03:56:45;;;;;;;3.60;2.15;;;19.10;43.00;;;;;;4983960;28;20514;-83
2023/06/15 03:59:14;;;;;;;3.25;2.40;;;19.00;43.00;;;;;;4984640;28;20065;-84
2023/06/15 04:01:42;;;;;;;2.10;1.90;;;19.00;43.00;;;;;;4980747;28;20517;-83
2023/06/15 04:04:12;;;;;;;3.90;2.35;;;19.00;43.00;;;;;;4983432;28;20050;-87
2023/06/15 04:06:46;;;;;;;3.65;2.15;;;19.00;43.00;;;;;;4981435;28;20073;-86
2023/06/15 04:09:14;;;;;;;19.92;11.95;;;18.90;43.00;;;;;;4983769;28;20705;-85
2023/06/15 04:11:41;;;;;;;10.30;5.88;;;18.90;43.00;;;;;;4983949;28;20059;-85
2023/06/15 04:14:09;;;;;;;4.75;3.33;;;18.90;43.20;;;;;;4984321;28;20442;-85
2023/06/15 04:16:37;;;;;;;3.85;2.85;;;18.90;43.30;;;;;;4981098;28;20061;-84
2023/06/15 04:19:07;;;;;;;4.72;2.45;;;18.80;43.30;;;;;;4978539;28;20058;-85
2023/06/15 04:21:34;;;;;;;4.30;2.45;;;18.80;43.30;;;;;;4982650;28;20046;-85
2023/06/15 04:24:01;;;;;;;2.60;1.90;;;18.80;43.40;;;;;;4983305;28;20414;-86
2023/06/15 04:26:28;;;;;;;3.58;2.40;;;18.70;43.40;;;;;;4984133;28;20057;-84
2023/06/15 04:28:58;;;;;;;2.90;2.15;;;18.70;43.60;;;;;;4984660;28;20065;-93
2023/06/15 04:31:25;;;;;;;3.95;2.08;;;18.70;43.70;;;;;;4981290;28;20053;-85
2023/06/15 04:33:58;;;;;;;2.80;2.22;;;18.70;43.70;;;;;;4983719;28;20065;-86
2023/06/15 04:36:25;;;;;;;11.18;6.45;;;18.60;43.80;;;;;;4984179;28;20058;-86
2023/06/15 04:38:53;;;;;;;8.75;5.18;;;18.60;43.80;;;;;;4980975;28;20049;-90
2023/06/15 04:41:23;;;;;;;3.80;2.83;;;18.60;43.90;;;;;;4979197;28;20054;-88
2023/06/15 04:43:50;;;;;;;5.07;2.70;;;18.60;44.00;;;;;;4979012;28;20058;-85
2023/06/15 04:46:18;;;;;;;4.32;2.30;;;18.60;44.20;;;;;;4980505;28;20081;-85
2023/06/15 04:48:47;;;;;;;8.48;2.28;;;18.60;44.50;;;;;;4982471;28;20054;-85
2023/06/15 04:51:16;;;;;;;4.82;2.00;;;18.60;44.80;;;;;;4982112;28;20046;-85
2023/06/15 04:53:44;;;;;;;3.75;1.77;;;18.60;45.00;;;;;;4981510;28;20070;-84
2023/06/15 04:56:12;;;;;;;2.03;1.83;;;18.60;44.90;;;;;;4983491;28;20050;-85
2023/06/15 04:58:39;;;;;;;3.45;2.35;;;18.60;45.00;;;;;;4983765;28;20054;-85
2023/06/15 05:01:07;;;;;;;2.70;2.20;;;18.60;45.10;;;;;;4981720;28;20046;-85
2023/06/15 05:03:34;;;;;;;3.15;2.30;;;18.60;45.30;;;;;;4981239;28;20548;-85
2023/06/15 05:06:01;;;;;;;3.90;2.30;;;18.60;45.40;;;;;;4982070;28;20069;-84
2023/06/15 05:08:30;;;;;;;4.50;2.47;;;18.60;45.50;;;;;;4982328;28;20061;-84
2023/06/15 05:10:57;;;;;;;2.95;2.38;;;18.60;45.60;;;;;;4988297;28;20054;-84
2023/06/15 05:13:24;;;;;;;3.55;2.47;;;18.60;45.60;;;;;;4982957;28;20050;-85
2023/06/15 05:15:52;;;;;;;5.45;2.67;;;18.60;45.80;;;;;;4982115;28;20065;-84
2023/06/15 05:18:19;;;;;;;2.90;2.53;;;18.60;46.00;;;;;;4982272;28;20490;-83
2023/06/15 05:20:46;;;;;;;4.28;2.25;;;18.60;46.00;;;;;;4981675;28;20517;-84
2023/06/15 05:23:14;;;;;;;2.97;2.20;;;18.60;46.10;;;;;;4980759;28;20529;-85
2023/06/15 05:25:42;;;;;;;3.67;2.42;;;18.60;46.70;;;;;;4980090;28;20063;-84
2023/06/15 05:28:10;;;;;;;3.10;2.30;;;18.60;46.30;;;;;;4983071;28;20054;-86
2023/06/15 05:30:37;;;;;;;2.80;2.47;;;18.60;46.30;;;;;;4981844;28;20236;-86
2023/06/15 05:33:04;;;;;;;4.13;2.90;;;18.70;46.50;;;;;;4979681;28;20065;-87
2023/06/15 05:35:31;;;;;;;4.03;2.70;;;18.70;46.60;;;;;;4980507;28;20057;-86
2023/06/15 05:37:59;;;;;;;7.65;1.98;;;18.70;46.50;;;;;;4981024;28;20057;-86
2023/06/15 05:40:26;;;;;;;3.00;2.28;;;18.80;46.60;;;;;;4982860;28;20057;-85
2023/06/15 05:42:55;;;;;;;3.42;2.40;;;18.70;46.50;;;;;;4982454;28;20054;-86
2023/06/15 05:45:22;;;;;;;5.97;2.85;;;18.80;46.60;;;;;;4982932;28;20058;-85
2023/06/15 05:47:49;;;;;;;8.30;2.75;;;18.80;46.60;;;;;;4981464;28;20061;-85
2023/06/15 05:50:17;;;;;;;3.15;2.55;;;18.80;46.60;;;;;;4982345;28;20065;-88
2023/06/15 05:52:44;;;;;;;3.47;2.70;;;18.90;46.70;;;;;;4978913;28;21018;-86
2023/06/15 05:55:12;;;;;;;3.17;2.40;;;18.80;46.70;;;;;;4979586;28;20058;-85
2023/06/15 05:57:39;;;;;;;5.47;2.83;;;18.90;46.70;;;;;;4979922;28;20046;-85
2023/06/15 06:00:09;;;;;;;3.90;2.70;;;18.90;46.80;;;;;;4980684;28;20514;-85
2023/06/15 06:02:37;;;;;;;3.92;2.75;;;19.00;46.80;;;;;;4978830;28;20062;-85
2023/06/15 06:05:05;;;;;;;4.28;2.88;;;19.00;46.80;;;;;;4980979;28;20065;-86
2023/06/15 06:07:32;;;;;;;4.80;2.97;;;19.10;47.00;;;;;;4979146;28;20778;-86
2023/06/15 06:09:59;;;;;;;13.88;6.65;;;19.10;47.10;;;;;;4981073;28;20050;-86
2023/06/15 06:12:26;;;;;;;7.60;5.20;;;19.10;47.00;;;;;;4981354;28;20494;-85
2023/06/15 06:14:54;;;;;;;11.85;6.03;;;19.20;46.90;;;;;;4986658;28;20050;-91
2023/06/15 06:17:23;;;;;;;8.05;4.03;;;19.20;47.30;;;;;;4981954;28;20058;-86
2023/06/15 06:19:51;;;;;;;5.45;3.28;;;19.30;46.80;;;;;;4980852;28;20065;-86
2023/06/15 06:22:19;;;;;;;9.35;3.92;;;19.30;46.80;;;;;;4980980;28;20053;-86
2023/06/15 06:24:46;;;;;;;4.55;3.15;;;19.30;46.90;;;;;;4976632;28;21368;-87
2023/06/15 06:27:13;;;;;;;5.25;2.95;;;19.40;46.80;;;;;;4982245;28;20933;-86
2023/06/15 06:29:41;;;;;;;3.97;2.53;;;19.40;46.80;;;;;;4981466;28;20061;-86
2023/06/15 06:32:08;;;;;;;8.38;3.47;;;19.50;47.00;;;;;;4987535;28;20062;-85
2023/06/15 06:34:37;;;;;;;9.73;3.83;;;19.50;47.40;;;;;;4979386;28;20058;-85
2023/06/15 06:37:05;;;;;;;9.05;3.80;;;19.50;47.30;;;;;;4986169;28;20069;-88
2023/06/15 06:39:33;;;;;;;4.60;3.10;;;19.60;47.30;;;;;;4978865;28;20407;-90
2023/06/15 06:42:00;;;;;;;9.48;3.70;;;19.60;47.20;;;;;;4982125;28;20066;-85
2023/06/15 06:44:28;;;;;;;11.45;3.45;;;19.70;47.70;;;;;;4979150;28;20057;-85
2023/06/15 06:46:56;;;;;;;7.82;4.15;;;19.70;47.80;;;;;;4979703;28;20049;-85
2023/06/15 06:49:23;;;;;;;6.22;3.45;;;19.80;48.00;;;;;;4978373;28;20406;-87
2023/06/15 06:51:52;;;;;;;4.80;3.35;;;19.80;48.40;;;;;;4980137;28;20422;-85
2023/06/15 06:54:19;;;;;;;10.13;3.65;;;19.90;47.90;;;;;;4982443;28;20062;-84
2023/06/15 06:56:46;;;;;;;10.93;3.80;;;19.90;48.00;;;;;;4977916;28;20055;-87
2023/06/15 06:59:14;;;;;;;4.47;3.38;;;19.90;48.00;;;;;;4976903;28;20054;-87
2023/06/15 07:01:43;;;;;;;7.97;3.17;;;20.00;47.70;;;;;;4974560;28;20050;-86
2023/06/15 07:04:10;;;;;;;7.07;3.17;;;20.10;47.60;;;;;;4980125;28;20096;-86
2023/06/15 07:06:38;;;;;;;4.05;3.20;;;20.10;47.70;;;;;;4980220;28;20057;-87
2023/06/15 07:09:06;;;;;;;5.25;3.60;;;20.20;47.60;;;;;;4978604;28;20054;-87
2023/06/15 07:11:34;;;;;;;6.55;3.60;;;20.20;47.30;;;;;;4976138;28;20065;-86
2023/06/15 07:14:03;;;;;;;7.72;4.00;;;20.30;47.30;;;;;;4975718;28;20054;-87
2023/06/15 07:16:30;;;;;;;4.78;3.13;;;20.30;47.30;;;;;;4981241;28;20057;-87
2023/06/15 07:18:58;;;;;;;4.28;3.20;;;20.40;47.30;;;;;;4981306;28;20438;-87
2023/06/15 07:21:25;;;;;;;9.55;3.40;;;20.40;47.20;;;;;;4979169;28;20574;-87
2023/06/15 07:23:53;;;;;;;4.68;3.35;;;20.40;47.10;;;;;;4975287;28;20058;-87
2023/06/15 07:26:21;;;;;;;6.35;3.13;;;20.50;46.80;;;;;;4979617;28;20054;-89
2023/06/15 07:28:49;;;;;;;5.85;3.40;;;20.60;46.90;;;;;;4977012;28;20050;-88
2023/06/15 07:31:16;;;;;;;7.65;2.97;;;20.60;47.00;;;;;;4983747;28;20058;-88
2023/06/15 07:33:43;;;;;;;12.85;5.80;;;20.70;47.10;;;;;;4984948;28;20054;-88
2023/06/15 07:36:10;;;;;;;12.05;4.00;;;20.80;47.30;;;;;;4981806;28;20517;-88
2023/06/15 07:38:38;;;;;;;7.30;3.50;;;20.80;47.40;;;;;;4980738;28;20414;-88
2023/06/15 07:41:05;;;;;;;9.68;3.10;;;21.00;47.00;;;;;;4983239;28;20840;-87
2023/06/15 07:43:35;;;;;;;8.25;3.60;;;21.00;46.70;;;;;;4980720;28;20081;-88
2023/06/15 07:46:02;;;;;;;5.00;3.17;;;21.10;46.90;;;;;;4983279;28;20406;-87
2023/06/15 07:48:30;;;;;;;6.05;3.70;;;21.20;47.10;;;;;;4982009;28;20046;-87
2023/06/15 07:50:57;;;;;;;6.93;3.53;;;21.30;46.10;;;;;;4982478;28;20065;-88
2023/06/15 07:53:25;;;;;;;5.05;3.22;;;21.30;45.70;;;;;;4979871;28;20061;-89
2023/06/15 07:55:52;;;;;;;7.50;3.40;;;21.40;45.50;;;;;;4981366;28;20054;-87
2023/06/15 07:58:19;;;;;;;5.10;3.17;;;21.50;44.80;;;;;;4977591;28;20360;-87
2023/06/15 08:00:48;;;;;;;5.60;3.13;;;21.50;44.70;;;;;;4981423;28;20065;-86
2023/06/15 08:03:17;;;;;;;4.45;2.80;;;21.60;44.60;;;;;;4976069;28;20645;-89
2023/06/15 08:05:47;;;;;;;5.63;2.72;;;21.70;44.80;;;;;;4976766;28;20062;-86
2023/06/15 08:08:17;;;;;;;4.28;2.97;;;21.80;45.00;;;;;;4980411;28;20046;-86
2023/06/15 08:10:47;;;;;;;13.73;3.88;;;21.90;44.80;;;;;;4981312;28;20054;-85
2023/06/15 08:13:18;;;;;;;4.05;2.95;;;21.90;44.10;;;;;;4981282;28;20050;-87
2023/06/15 08:15:50;;;;;;;13.65;3.58;;;22.00;43.90;;;;;;4982816;28;20541;-86
2023/06/15 08:24:09;;;;;;;4.38;3.03;;;22.30;43.60;;;;;;4930249;28;20061;-85
2023/06/15 08:26:42;;;;;;;4.15;2.50;;;22.30;43.80;;;;;;4981760;28;20065;-86
2023/06/15 08:32:12;;;;;;;6.63;3.43;;;22.50;43.20;;;;;;4940665;28;20067;-86
2023/06/15 08:34:49;;;;;;;5.32;3.00;;;22.60;43.10;;;;;;4967719;28;20058;-85
2023/06/15 08:37:22;;;;;;;9.27;3.10;;;22.60;43.10;;;;;;4979377;28;20073;-86
2023/06/15 08:39:56;;;;;;;6.30;3.22;;;22.70;43.20;;;;;;4980349;28;20570;-86
2023/06/15 08:42:27;;;;;;;;;;;22.80;43.00;;;;;;4982327;28;20065;-86
2023/06/15 08:45:17;;;;;;;5.72;2.92;;;22.90;42.20;;;;;;4980676;28;19948;-86
2023/06/15 08:47:56;;;;;;;8.05;2.90;;;23.00;42.00;;;;;;4980597;28;20421;-86
2023/06/15 08:50:26;;;;;;;4.55;2.63;;;23.00;42.00;;;;;;4980897;28;20065;-86
2023/06/15 08:53:00;;;;;;;5.93;2.58;;;23.10;42.40;;;;;;4978702;28;20054;-84
2023/06/15 08:55:33;;;;;;;5.60;3.00;;;23.20;41.80;;;;;;4981073;28;20509;-85
2023/06/15 08:58:12;;;;;;;7.70;3.00;;;23.30;41.60;;;;;;4957254;28;20054;-85
2023/06/15 09:00:47;;;;;;;5.03;2.83;;;23.30;41.70;;;;;;4981301;28;20104;-84
2023/06/15 09:03:18;;;;;;;5.30;2.95;;;23.40;41.70;;;;;;4981985;28;20498;-86
2023/06/15 09:05:47;;;;;;;7.78;3.08;;;23.40;41.10;;;;;;4981007;28;20137;-85
2023/06/15 09:08:14;;;;;;;5.45;3.28;;;23.60;40.80;;;;;;4987082;28;20482;-85
2023/06/15 09:10:41;;;;;;;5.68;3.13;;;23.60;40.60;;;;;;4982570;28;20065;-87
2023/06/15 09:13:16;;;;;;;3.80;2.80;;;23.60;40.10;;;;;;4983846;28;20065;-87
2023/06/15 09:15:50;;;;;;;5.43;3.05;;;23.70;40.00;;;;;;4983527;28;20066;-87
2023/06/15 09:18:18;;;;;;;;;;;23.70;40.00;;;;;;4983047;28;20513;-87
2023/06/15 09:20:46;;;;;;;5.20;3.10;;;23.80;40.20;;;;;;4981676;28;19922;-87
2023/06/15 09:23:13;;;;;;;5.13;2.95;;;23.90;39.90;;;;;;4980829;28;21329;-87
2023/06/15 09:25:51;;;;;;;4.07;2.80;;;23.90;39.60;;;;;;4981453;28;20062;-87
2023/06/15 09:28:22;;;;;;;7.28;3.00;;;23.90;39.40;;;;;;4981503;28;20502;-87
2023/06/15 09:30:55;;;;;;;6.57;2.63;;;24.00;39.40;;;;;;4978644;28;20732;-89
2023/06/15 09:33:25;;;;;;;5.70;2.92;;;24.00;38.90;;;;;;4981415;28;20058;-90
2023/06/15 09:36:00;;;;;;;5.57;2.60;;;24.10;38.90;;;;;;4978901;28;20066;-87
2023/06/15 09:38:28;;;;;;;4.78;2.97;;;24.10;37.80;;;;;;4980087;28;20053;-87
2023/06/15 09:40:56;;;;;;;3.58;2.63;;;24.10;37.50;;;;;;4979357;28;20054;-87
2023/06/15 09:43:23;;;;;;;5.30;2.78;;;24.10;37.40;;;;;;4980574;28;20058;-86
2023/06/15 09:45:51;;;;;;;5.93;3.03;;;24.20;37.00;;;;;;4982793;28;20065;-87
2023/06/15 09:48:18;;;;;;;4.90;3.03;;;24.20;36.60;;;;;;4981942;28;20046;-86
2023/06/15 09:50:51;;;;;;;5.53;2.78;;;24.20;36.20;;;;;;4981849;28;20069;-87
2023/06/15 09:53:19;;;;;;;3.95;2.60;;;24.30;35.80;;;;;;4980221;28;20050;-87
2023/06/15 09:55:47;;;;;;;5.38;3.22;;;24.30;36.00;;;;;;4982416;28;20054;-86
2023/06/15 09:58:14;;;;;;;6.53;2.95;;;24.40;35.60;;;;;;4982514;28;20046;-88
2023/06/15 10:00:42;;;;;;;3.63;2.40;;;24.50;36.00;;;;;;4981487;28;20062;-89
2023/06/15 10:03:16;;;;;;;6.90;2.92;;;24.50;35.90;;;;;;4979822;28;20050;-90
2023/06/15 10:05:49;;;;;;;5.60;2.97;;;24.50;35.40;;;;;;4981881;28;20053;-87
2023/06/15 10:08:20;;;;;;;7.45;2.80;;;24.60;35.20;;;;;;4977365;28;20418;-87
2023/06/15 10:10:48;;;;;;;3.90;2.40;;;24.70;34.70;;;;;;4978140;28;20056;-87
2023/06/15 10:13:22;;;;;;;10.07;3.78;;;24.70;34.80;;;;;;4979742;28;20047;-88
2023/06/15 10:15:55;;;;;;;14.60;4.00;;;24.70;33.80;;;;;;4978514;28;20058;-87
2023/06/15 10:18:26;;;;;;;7.60;3.42;;;24.70;33.70;;;;;;4979577;28;20053;-87
2023/06/15 10:20:54;;;;;;;7.35;3.45;;;24.70;33.60;;;;;;4976754;28;20425;-87
2023/06/15 10:23:26;;;;;;;6.85;3.25;;;24.70;33.70;;;;;;4977343;28;20572;-88
2023/06/15 10:25:57;;;;;;;8.23;3.17;;;24.70;33.50;;;;;;4978097;28;20057;-88
2023/06/15 10:28:25;;;;;;;10.15;3.60;;;24.70;33.90;;;;;;4976117;28;20057;-88
2023/06/15 10:30:59;;;;;;;4.60;3.10;;;24.70;34.60;;;;;;4976311;28;20060;-88
2023/06/15 10:33:31;;;;;;;;;;;24.80;34.20;;;;;;4976954;28;20046;-88
2023/06/15 10:36:03;;;;;;;8.60;3.15;;;24.80;34.60;;;;;;4973201;28;19929;-88
2023/06/15 10:38:42;;;;;;;8.85;3.67;;;24.80;33.80;;;;;;4976588;28;20379;-86
2023/06/15 10:41:10;;;;;;;7.13;3.63;;;24.90;33.90;;;;;;4976818;28;20066;-87
2023/06/15 10:43:37;;;;;;;5.97;3.28;;;24.90;33.80;;;;;;4978025;28;20056;-88
2023/06/15 10:46:06;;;;;;;7.97;3.53;;;25.00;33.80;;;;;;4975340;28;20056;-87
2023/06/15 10:48:39;;;;;;;5.93;3.30;;;25.00;33.30;;;;;;4981800;28;20058;-88
2023/06/15 10:51:08;;;;;;;6.78;3.22;;;25.00;33.10;;;;;;4975678;28;20054;-88
2023/06/15 10:53:39;;;;;;;6.18;3.22;;;25.00;34.00;;;;;;4972924;28;20069;-88
2023/06/15 10:56:14;;;;;;;12.40;3.80;;;25.00;33.60;;;;;;4976870;28;20421;-87
2023/06/15 10:58:55;;;;;;;10.43;3.92;;;25.00;33.90;;;;;;4975473;28;20513;-88
2023/06/15 11:01:23;;;;;;;12.73;3.42;;;25.00;33.30;;;;;;4975391;28;20426;-88
2023/06/15 11:03:52;;;;;;;5.50;3.40;;;25.00;33.20;;;;;;4977979;28;20050;-88
2023/06/15 11:06:21;;;;;;;7.75;3.60;;;25.00;33.80;;;;;;4983024;28;20065;-88
2023/06/15 11:08:51;;;;;;;147.77;8.65;;;25.00;33.50;;;;;;4981198;28;20055;-88
2023/06/15 11:11:31;;;;;;;99.60;12.00;;;25.00;34.00;;;;;;4983767;28;20047;-88
2023/06/15 11:14:02;;;;;;;24.17;5.63;;;25.10;34.50;;;;;;4979327;28;20058;-88
2023/06/15 11:16:34;;;;;;;6.15;3.25;;;25.20;34.60;;;;;;4983218;28;20050;-88
2023/06/15 11:19:24;;;;;;;4.93;3.28;;;25.20;34.40;;;;;;4981111;28;20059;-89
2023/06/15 11:22:00;;;;;;;5.68;2.78;;;25.30;34.10;;;;;;4982178;28;20069;-88
2023/06/15 11:24:34;;;;;;;23.67;4.50;;;25.30;34.90;;;;;;4980671;28;20061;-88
2023/06/15 11:27:03;;;;;;;9.10;3.45;;;25.40;34.70;;;;;;4980407;28;20050;-87
2023/06/15 11:29:33;;;;;;;7.35;2.80;;;25.40;34.60;;;;;;4977284;28;20093;-87
2023/06/15 11:32:02;;;;;;;6.95;2.97;;;25.50;34.50;;;;;;4979379;28;20054;-87
2023/06/15 11:34:30;;;;;;;7.20;2.70;;;25.50;34.50;;;;;;4982211;28;20050;-88
2023/06/15 11:36:58;;;;;;;6.90;2.78;;;25.60;34.20;;;;;;4976935;28;20387;-88
2023/06/15 11:39:29;;;;;;;6.03;2.70;;;25.60;34.10;;;;;;4982519;28;20050;-87
2023/06/15 11:41:58;;;;;;;2.80;2.50;;;25.70;33.80;;;;;;4988164;28;20065;-87
2023/06/15 11:44:27;;;;;;;4.60;3.17;;;25.70;33.90;;;;;;4977986;28;20414;-87
2023/06/15 11:46:55;;;;;;;6.78;2.92;;;25.80;33.40;;;;;;4985813;28;20053;-86
2023/06/15 11:49:23;;;;;;;5.13;2.90;;;25.80;33.50;;;;;;4985026;28;20053;-87
2023/06/15 11:51:52;;;;;;;4.35;2.72;;;25.90;33.60;;;;;;4981217;28;20054;-86
2023/06/15 11:54:23;;;;;;;5.70;2.85;;;26.00;33.70;;;;;;4978795;28;20050;-86
2023/06/15 11:56:52;;;;;;;6.80;2.97;;;26.00;33.30;;;;;;4979118;28;20050;-86
2023/06/15 11:59:21;;;;;;;9.80;3.47;;;26.10;33.30;;;;;;4981206;28;20061;-86
2023/06/15 12:01:50;;;;;;;6.95;3.33;;;26.20;32.30;;;;;;4981680;28;20065;-87
2023/06/15 12:04:17;;;;;;;9.40;3.13;;;26.20;32.60;;;;;;4982012;28;20058;-86
2023/06/15 12:06:46;;;;;;;5.22;2.90;;;26.30;32.10;;;;;;4981463;28;20494;-87
2023/06/15 12:09:15;;;;;;;6.40;2.88;;;26.30;30.60;;;;;;4982898;28;20066;-85
2023/06/15 12:11:45;;;;;;;7.32;3.08;;;26.30;30.90;;;;;;4981369;28;20414;-86
2023/06/15 12:14:16;;;;;;;3.95;2.72;;;26.30;30.40;;;;;;4980420;28;20073;-85
2023/06/15 12:16:50;;;;;;;4.10;3.10;;;26.30;30.20;;;;;;4982343;28;20062;-85
2023/06/15 12:19:17;;;;;;;;;;;26.30;30.20;;;;;;4983140;28;20046;-87
2023/06/15 12:21:45;;;;;;;4.30;2.95;;;26.30;31.10;;;;;;4977516;28;19922;-87
2023/06/15 12:24:14;;;;;;;7.75;2.88;;;26.30;30.20;;;;;;4974808;28;20050;-88
2023/06/15 12:26:42;;;;;;;9.65;3.58;;;26.20;29.70;;;;;;4980856;28;20073;-88
2023/06/15 12:29:16;;;;;;;5.18;3.00;;;26.20;29.60;;;;;;4974979;28;20116;-86
2023/06/15 12:31:47;;;;;;;;;;;26.20;29.40;;;;;;4979299;28;20592;-86
2023/06/15 12:34:14;;;;;;;6.65;2.80;;;26.20;30.00;;;;;;4978505;28;19937;-86
2023/06/15 12:36:41;;;;;;;3.00;2.50;;;26.20;29.10;;;;;;4976984;28;20054;-88
2023/06/15 12:39:10;;;;;;;4.22;2.90;;;26.30;29.30;;;;;;4977828;28;20111;-86
2023/06/15 12:41:43;;;;;;;4.28;2.58;;;26.20;29.70;;;;;;4981162;28;20058;-87
2023/06/15 12:44:10;;;;;;;5.72;2.67;;;26.30;29.90;;;;;;4981726;28;20058;-88
2023/06/15 12:46:40;;;;;;;7.03;2.67;;;26.30;30.20;;;;;;4980850;28;20060;-88
2023/06/15 12:49:09;;;;;;;6.30;2.72;;;26.30;30.00;;;;;;4980651;28;20050;-88
2023/06/15 12:51:37;;;;;;;5.53;2.60;;;26.30;29.80;;;;;;4980043;28;20414;-89
2023/06/15 12:54:05;;;;;;;5.28;2.63;;;26.40;29.90;;;;;;4984300;28;20070;-88
2023/06/15 12:56:34;;;;;;;5.03;2.70;;;26.40;30.00;;;;;;4979783;28;20422;-89
2023/06/15 12:59:01;;;;;;;3.47;2.40;;;26.40;29.60;;;;;;4977841;28;20076;-87
2023/06/15 13:01:29;;;;;;;5.13;2.75;;;26.50;29.90;;;;;;4981414;28;20062;-88
2023/06/15 13:03:58;;;;;;;7.78;3.63;;;26.40;29.30;;;;;;4978565;28;20066;-88
2023/06/15 13:06:26;;;;;;;4.78;2.90;;;26.40;29.10;;;;;;4979362;28;20050;-87